Time;durP1;ratioP1;P1;durP2;ratioP2;P2;SDS_P1;SDS_P2;PMS_P1;PMS_P2;Temp;Humidity;BMP_temperature;BMP_pressure;BME280_temperature;BME280_humidity;BME280_pressure;Samples;Min_cycle;Max_cycle;Signal;HPM_P1;HPM_P2
2022/01/01 00:00:47;;;;;;;2.75;1.90;;;13.90;97.60;;;;;;5024580;28;20361;-73
2022/01/01 00:03:14;;;;;;;3.55;2.30;;;13.80;97.70;;;;;;5045947;28;20099;-73
2022/01/01 00:05:41;;;;;;;3.45;2.47;;;13.80;98.00;;;;;;5045874;28;20116;-73
2022/01/01 00:08:12;;;;;;;3.50;2.45;;;13.90;98.20;;;;;;5037463;28;20020;-73
2022/01/01 00:10:38;;;;;;;3.95;2.65;;;13.80;98.30;;;;;;5043731;28;20575;-73
2022/01/01 00:13:03;;;;;;;5.33;2.30;;;13.80;98.20;;;;;;5032429;28;20021;-73
2022/01/01 00:15:29;;;;;;;2.70;2.30;;;13.80;98.50;;;;;;5028997;28;20496;-73
2022/01/01 00:18:01;;;;;;;3.17;2.33;;;13.80;98.20;;;;;;5036999;28;20098;-73
2022/01/01 00:20:29;;;;;;;2.80;2.13;;;13.70;98.30;;;;;;5027442;28;20305;-73
2022/01/01 00:22:56;;;;;;;3.67;2.40;;;13.70;98.50;;;;;;5041595;28;20052;-72
2022/01/01 00:25:22;;;;;;;;;;;13.70;98.50;;;;;;5044397;28;20071;-73
2022/01/01 00:27:48;;;;;;;4.97;2.50;;;13.70;98.60;;;;;;5040685;28;19958;-74
2022/01/01 00:30:17;;;;;;;3.37;2.50;;;13.70;98.60;;;;;;5048099;28;20516;-73
2022/01/01 00:32:45;;;;;;;3.70;2.60;;;13.70;98.70;;;;;;5035716;28;20912;-73
2022/01/01 00:35:12;;;;;;;4.60;2.70;;;13.70;98.60;;;;;;5046913;28;20024;-73
2022/01/01 00:37:38;;;;;;;4.55;2.50;;;13.70;98.70;;;;;;5040747;28;20036;-73
2022/01/01 00:40:06;;;;;;;3.50;2.77;;;13.60;98.80;;;;;;5041408;28;20016;-73
2022/01/01 00:42:32;;;;;;;4.53;2.97;;;13.60;98.80;;;;;;5047505;28;20103;-73
2022/01/01 00:44:57;;;;;;;3.90;2.40;;;13.60;98.70;;;;;;5029533;28;20107;-74
2022/01/01 00:47:24;;;;;;;3.53;2.50;;;13.50;98.80;;;;;;5028085;28;20140;-73
2022/01/01 00:49:52;;;;;;;;;;;13.50;99.10;;;;;;5031128;28;20065;-74
2022/01/01 00:52:17;;;;;;;4.13;2.42;;;13.40;99.20;;;;;;5043376;28;20011;-73
2022/01/01 00:54:43;;;;;;;6.33;2.40;;;13.40;99.30;;;;;;5040126;28;20037;-73
2022/01/01 00:57:09;;;;;;;4.57;2.40;;;13.40;99.60;;;;;;5049035;28;20017;-74
2022/01/01 00:59:39;;;;;;;4.30;2.57;;;13.30;99.40;;;;;;5042808;28;20040;-73
2022/01/01 01:02:04;;;;;;;5.00;2.60;;;13.30;99.50;;;;;;5049497;28;20581;-73
2022/01/01 01:04:30;;;;;;;4.43;3.07;;;13.20;99.70;;;;;;5045930;28;20699;-73
2022/01/01 01:06:56;;;;;;;4.40;2.57;;;13.20;99.80;;;;;;5042876;28;20036;-74
2022/01/01 01:09:23;;;;;;;4.47;2.97;;;13.10;99.90;;;;;;5046179;28;20021;-72
2022/01/01 01:11:52;;;;;;;4.80;2.90;;;13.10;99.90;;;;;;5042495;28;20746;-73
2022/01/01 01:14:23;;;;;;;3.83;2.75;;;13.00;99.90;;;;;;5046228;28;20027;-72
2022/01/01 01:16:54;;;;;;;5.80;3.10;;;13.00;99.90;;;;;;5044124;28;20017;-73
2022/01/01 01:19:20;;;;;;;5.03;2.90;;;13.00;99.90;;;;;;5046485;28;20024;-73
2022/01/01 01:21:46;;;;;;;3.72;2.85;;;13.00;99.90;;;;;;5044557;28;20737;-73
2022/01/01 01:24:15;;;;;;;4.05;3.22;;;13.00;99.90;;;;;;5056189;28;20369;-73
2022/01/01 01:26:49;;;;;;;4.13;2.83;;;13.00;99.90;;;;;;5065291;28;20028;-73
2022/01/01 01:29:15;;;;;;;3.85;2.78;;;13.00;99.90;;;;;;5062087;28;20025;-73
2022/01/01 01:31:43;;;;;;;5.65;2.88;;;12.90;99.90;;;;;;5061136;28;20035;-73
2022/01/01 01:34:09;;;;;;;5.20;3.28;;;13.00;99.90;;;;;;5044147;28;20021;-73
2022/01/01 01:36:35;;;;;;;4.88;3.38;;;13.00;99.90;;;;;;5051611;28;20020;-72
2022/01/01 01:39:02;;;;;;;4.30;3.27;;;12.90;99.90;;;;;;5043189;28;20009;-73
2022/01/01 01:41:31;;;;;;;3.78;2.90;;;12.90;99.90;;;;;;5047850;28;20090;-73
2022/01/01 01:44:03;;;;;;;4.90;3.53;;;12.90;99.90;;;;;;5042924;28;20013;-72
2022/01/01 01:46:30;;;;;;;6.38;3.63;;;12.90;99.90;;;;;;5061516;28;20013;-73
2022/01/01 01:48:56;;;;;;;;;;;12.90;99.90;;;;;;5057986;28;20013;-73
2022/01/01 01:51:23;;;;;;;5.28;3.38;;;12.90;99.90;;;;;;5045026;28;19905;-74
2022/01/01 01:53:48;;;;;;;5.75;3.40;;;12.90;99.90;;;;;;5041932;28;20107;-73
2022/01/01 01:56:14;;;;;;;6.10;3.40;;;12.90;99.90;;;;;;5025812;28;20195;-73
2022/01/01 01:58:40;;;;;;;4.93;3.45;;;12.90;99.90;;;;;;5031623;28;20017;-72
2022/01/01 02:01:23;;;;;;;6.87;3.20;;;12.80;99.90;;;;;;5041764;28;20281;-74
2022/01/01 02:03:54;;;;;;;5.05;3.58;;;12.80;99.90;;;;;;5030051;28;20310;-73
2022/01/01 02:06:20;;;;;;;5.05;3.72;;;12.80;99.90;;;;;;5028464;28;20381;-74
2022/01/01 02:08:49;;;;;;;6.10;3.67;;;12.80;99.90;;;;;;5047530;28;20033;-73
2022/01/01 02:11:17;;;;;;;5.65;3.75;;;12.90;99.90;;;;;;5048276;28;20028;-73
2022/01/01 02:18:51;;;;;;;8.60;4.28;;;12.80;99.90;;;;;;5040245;28;20045;-73
2022/01/01 02:21:20;;;;;;;7.13;3.75;;;12.80;99.90;;;;;;5045554;28;20024;-73
2022/01/01 02:23:56;;;;;;;7.43;4.65;;;12.80;99.90;;;;;;5043490;28;20017;-73
2022/01/01 02:26:32;;;;;;;7.68;4.18;;;12.80;99.90;;;;;;5028503;28;20374;-74
2022/01/01 02:29:04;;;;;;;6.00;4.03;;;12.80;99.90;;;;;;5043801;28;20052;-73
2022/01/01 02:31:34;;;;;;;7.88;4.50;;;12.80;99.90;;;;;;5049605;28;20025;-73
2022/01/01 02:34:10;;;;;;;6.90;4.00;;;12.80;99.90;;;;;;5040789;28;20025;-73
2022/01/01 02:36:39;;;;;;;7.68;4.18;;;12.70;99.90;;;;;;5032570;28;20016;-73
2022/01/01 02:39:20;;;;;;;6.97;4.50;;;12.70;99.90;;;;;;5039253;28;20025;-73
2022/01/01 02:41:48;;;;;;;6.80;4.35;;;12.70;99.90;;;;;;5045308;28;20024;-73
2022/01/01 02:44:15;;;;;;;5.88;4.15;;;12.70;99.90;;;;;;5048859;28;20432;-73
2022/01/01 02:46:41;;;;;;;7.45;4.55;;;12.70;99.90;;;;;;5045468;28;20074;-73
2022/01/01 02:49:07;;;;;;;6.77;4.40;;;12.70;99.90;;;;;;5023305;28;20616;-73
2022/01/01 02:51:35;;;;;;;7.73;4.50;;;12.60;99.90;;;;;;5036422;28;20283;-73
2022/01/01 02:54:02;;;;;;;7.13;4.38;;;12.70;99.90;;;;;;5042680;28;20044;-73
2022/01/01 02:56:30;;;;;;;7.13;4.30;;;12.60;99.90;;;;;;5041276;28;20029;-73
2022/01/01 02:59:02;;;;;;;8.07;4.95;;;12.60;99.90;;;;;;5044561;28;20464;-72
2022/01/01 03:01:29;;;;;;;7.38;4.60;;;12.60;99.90;;;;;;5049028;28;20917;-73
2022/01/01 03:03:54;;;;;;;8.60;4.93;;;12.70;99.90;;;;;;5040693;28;20017;-73
2022/01/01 03:06:20;;;;;;;8.83;5.10;;;12.70;99.90;;;;;;5045050;28;20502;-74
2022/01/01 03:08:51;;;;;;;7.13;4.22;;;12.60;99.90;;;;;;5046738;28;20017;-74
2022/01/01 03:11:18;;;;;;;8.32;4.25;;;12.60;99.90;;;;;;5044851;28;20593;-73
2022/01/01 03:13:44;;;;;;;6.47;4.18;;;12.70;99.90;;;;;;5046535;28;20033;-73
2022/01/01 03:16:12;;;;;;;8.18;4.63;;;12.70;99.90;;;;;;5042146;28;20554;-73
2022/01/01 03:18:41;;;;;;;6.88;4.32;;;12.60;99.90;;;;;;5030730;28;20051;-73
2022/01/01 03:21:07;;;;;;;7.03;4.57;;;12.60;99.90;;;;;;5044464;28;20028;-73
2022/01/01 03:23:35;;;;;;;5.57;4.30;;;12.60;99.90;;;;;;5026840;28;20029;-73
2022/01/01 03:26:01;;;;;;;6.65;4.47;;;12.60;99.90;;;;;;5039699;28;20033;-73
2022/01/01 03:28:29;;;;;;;7.72;4.43;;;12.60;99.90;;;;;;5035514;28;20194;-73
2022/01/01 03:30:55;;;;;;;6.57;4.30;;;12.60;99.90;;;;;;5040723;28;20085;-73
2022/01/01 03:33:22;;;;;;;5.10;3.55;;;12.60;99.90;;;;;;5046244;28;20017;-73
2022/01/01 03:35:48;;;;;;;;;;;12.60;99.90;;;;;;5046735;28;20028;-73
2022/01/01 03:38:15;;;;;;;7.57;3.88;;;12.60;99.90;;;;;;5043087;28;19917;-73
2022/01/01 03:40:41;;;;;;;6.03;3.70;;;12.60;99.90;;;;;;5045336;28;20078;-73
2022/01/01 03:43:09;;;;;;;7.30;4.20;;;12.50;99.90;;;;;;5042903;28;20450;-73
2022/01/01 03:45:36;;;;;;;6.55;4.18;;;12.50;99.90;;;;;;5029675;28;20040;-73
2022/01/01 03:48:06;;;;;;;7.18;3.65;;;12.50;99.90;;;;;;5025349;28;20021;-73
2022/01/01 03:50:32;;;;;;;6.38;4.05;;;12.50;99.90;;;;;;5043664;28;20020;-73
2022/01/01 03:52:58;;;;;;;;;;;12.50;99.90;;;;;;5042995;28;20106;-73
2022/01/01 03:55:23;;;;;;;4.65;3.55;;;12.50;99.90;;;;;;5046175;28;19912;-73
2022/01/01 03:57:49;;;;;;;5.37;3.70;;;12.50;99.90;;;;;;5042446;28;20016;-73
2022/01/01 04:00:15;;;;;;;5.20;3.77;;;12.50;99.90;;;;;;5041269;28;20033;-73
2022/01/01 04:02:41;;;;;;;10.00;3.60;;;12.40;99.90;;;;;;5038517;28;20025;-73
2022/01/01 04:05:13;;;;;;;5.37;3.37;;;12.40;99.90;;;;;;5041383;28;20024;-74
2022/01/01 04:07:40;;;;;;;6.20;4.05;;;12.40;99.90;;;;;;5043251;28;20601;-73
2022/01/01 04:10:07;;;;;;;5.80;3.45;;;12.40;99.90;;;;;;5038691;28;20466;-73
2022/01/01 04:12:34;;;;;;;5.72;3.33;;;12.40;99.90;;;;;;5044884;28;20078;-73
2022/01/01 04:15:02;;;;;;;;;;;12.40;99.90;;;;;;5040352;28;20017;-73
2022/01/01 04:17:35;;;;;;;5.90;3.33;;;12.40;99.90;;;;;;5041040;28;20395;-72
2022/01/01 04:20:04;;;;;;;5.72;3.35;;;12.40;99.90;;;;;;5025452;28;20893;-74
2022/01/01 04:22:30;;;;;;;6.07;3.95;;;12.40;99.90;;;;;;5045170;28;20036;-73
2022/01/01 04:24:56;;;;;;;4.60;3.20;;;12.40;99.90;;;;;;5040886;28;20024;-73
2022/01/01 04:27:21;;;;;;;6.38;4.00;;;12.40;99.90;;;;;;5032726;28;20032;-73
2022/01/01 04:29:47;;;;;;;7.23;4.00;;;12.30;99.90;;;;;;5042533;28;20473;-73
2022/01/01 04:32:18;;;;;;;6.82;3.85;;;12.30;99.90;;;;;;5034476;28;20024;-73
2022/01/01 04:34:45;;;;;;;5.05;3.30;;;12.20;99.90;;;;;;5043642;28;20036;-73
2022/01/01 04:37:15;;;;;;;6.57;3.40;;;12.20;99.90;;;;;;5040184;28;20016;-72
2022/01/01 04:39:50;;;;;;;4.85;3.13;;;12.10;99.90;;;;;;5044189;28;21477;-73
2022/01/01 04:42:19;;;;;;;4.47;2.97;;;12.10;99.90;;;;;;5041091;28;20078;-73
2022/01/01 04:44:45;;;;;;;6.13;3.28;;;12.00;99.90;;;;;;5042777;28;20024;-73
2022/01/01 04:47:11;;;;;;;4.40;3.37;;;12.10;99.90;;;;;;5042157;28;20760;-73
2022/01/01 04:49:38;;;;;;;;;;;12.00;99.90;;;;;;5044350;28;20024;-73
2022/01/01 04:52:04;;;;;;;5.30;3.58;;;11.90;99.90;;;;;;5040605;28;19904;-72
2022/01/01 04:54:29;;;;;;;4.80;3.00;;;11.90;99.90;;;;;;5027345;28;20022;-73
2022/01/01 04:56:55;;;;;;;5.53;3.23;;;11.90;99.90;;;;;;5038065;28;20021;-74
2022/01/01 04:59:22;;;;;;;4.73;3.20;;;11.90;99.90;;;;;;5031105;28;20078;-73
2022/01/01 05:01:48;;;;;;;;;;;11.90;99.90;;;;;;5046631;28;20020;-73
2022/01/01 05:04:18;;;;;;;5.60;3.03;;;11.90;99.90;;;;;;5037100;28;20138;-73
2022/01/01 05:06:49;;;;;;;5.20;2.90;;;11.90;99.90;;;;;;5026689;28;20029;-73
2022/01/01 05:09:16;;;;;;;6.57;3.10;;;11.80;99.90;;;;;;5022812;28;20021;-73
2022/01/01 05:11:43;;;;;;;5.13;3.10;;;11.90;99.90;;;;;;5030011;28;20020;-73
2022/01/01 05:14:09;;;;;;;6.32;3.05;;;11.80;99.90;;;;;;5040795;28;20082;-74
2022/01/01 05:16:35;;;;;;;6.35;3.60;;;11.90;99.90;;;;;;5043065;28;20409;-73
2022/01/01 05:19:01;;;;;;;4.68;2.72;;;11.90;99.90;;;;;;5022731;28;20040;-73
2022/01/01 05:21:32;;;;;;;4.60;3.00;;;12.00;99.90;;;;;;5043104;28;20033;-73
2022/01/01 05:24:00;;;;;;;4.80;2.78;;;12.00;99.90;;;;;;5039066;28;20028;-73
2022/01/01 05:26:26;;;;;;;5.00;3.00;;;12.00;99.90;;;;;;5046343;28;20013;-74
2022/01/01 05:28:53;;;;;;;3.17;2.53;;;12.00;99.90;;;;;;5041402;28;20070;-73
2022/01/01 05:31:21;;;;;;;3.50;2.67;;;12.00;99.90;;;;;;5040474;28;20136;-73
2022/01/01 05:33:48;;;;;;;4.82;2.50;;;12.00;99.90;;;;;;5045013;28;20086;-73
2022/01/01 05:36:16;;;;;;;3.08;2.50;;;12.00;99.90;;;;;;5044183;28;20640;-73
2022/01/01 05:38:43;;;;;;;3.35;2.25;;;12.00;99.90;;;;;;5045396;28;20053;-73
2022/01/01 05:41:10;;;;;;;;;;;12.00;99.90;;;;;;5022451;28;20028;-73
2022/01/01 05:43:36;;;;;;;3.25;1.92;;;12.00;99.90;;;;;;5043235;28;19917;-73
2022/01/01 05:46:04;;;;;;;4.07;2.15;;;12.00;99.90;;;;;;5021694;28;20048;-73
2022/01/01 05:48:30;;;;;;;4.40;2.65;;;11.90;99.90;;;;;;5042161;28;20033;-73
2022/01/01 05:50:56;;;;;;;2.93;2.20;;;12.00;99.90;;;;;;5046913;28;20070;-73
2022/01/01 05:53:24;;;;;;;3.95;2.20;;;12.00;99.90;;;;;;5047087;28;20029;-74
2022/01/01 05:55:51;;;;;;;2.67;2.03;;;12.00;99.90;;;;;;5044601;28;20037;-73
2022/01/01 05:58:17;;;;;;;;;;;12.00;99.90;;;;;;5045115;28;20020;-73
2022/01/01 06:00:43;;;;;;;3.03;1.77;;;12.00;99.90;;;;;;5046878;28;20667;-73
2022/01/01 06:03:10;;;;;;;2.47;1.90;;;12.00;99.90;;;;;;5043712;28;20094;-73
2022/01/01 06:05:36;;;;;;;3.78;2.05;;;12.00;99.90;;;;;;5050285;28;20023;-73
2022/01/01 06:08:02;;;;;;;3.43;2.33;;;12.10;99.90;;;;;;5041857;28;20036;-74
2022/01/01 06:10:28;;;;;;;;;;;12.10;99.90;;;;;;5044945;28;20044;-73
2022/01/01 06:12:56;;;;;;;3.85;2.25;;;12.10;99.90;;;;;;5047474;28;19909;-73
2022/01/01 06:15:22;;;;;;;3.97;2.38;;;12.10;99.90;;;;;;5049393;28;20025;-73
2022/01/01 06:17:49;;;;;;;5.05;2.05;;;12.20;99.90;;;;;;5028833;28;20666;-73
2022/01/01 06:20:16;;;;;;;;;;;12.20;99.90;;;;;;5042862;28;20061;-73
2022/01/01 06:22:42;;;;;;;2.85;1.90;;;12.30;99.90;;;;;;5051434;28;20254;-73
2022/01/01 06:25:10;;;;;;;3.00;2.10;;;12.30;99.90;;;;;;5038618;28;20025;-73
2022/01/01 06:27:37;;;;;;;3.28;2.22;;;12.30;99.90;;;;;;5048746;28;20576;-73
2022/01/01 06:30:05;;;;;;;2.75;2.20;;;12.30;99.90;;;;;;5044107;28;20052;-73
2022/01/01 06:32:32;;;;;;;3.63;2.30;;;12.30;99.90;;;;;;5045095;28;20387;-73
2022/01/01 06:34:58;;;;;;;;;;;12.40;99.90;;;;;;5040161;28;20610;-73
2022/01/01 06:37:25;;;;;;;3.40;2.38;;;12.30;99.90;;;;;;5027674;28;19909;-73
2022/01/01 06:39:50;;;;;;;4.82;2.20;;;12.30;99.90;;;;;;5042810;28;20028;-73
2022/01/01 06:42:16;;;;;;;4.73;2.10;;;12.30;99.90;;;;;;5037869;28;20097;-73
2022/01/01 06:44:46;;;;;;;4.03;2.60;;;12.20;99.90;;;;;;5028927;28;20055;-73
2022/01/01 06:47:12;;;;;;;2.72;2.30;;;12.20;99.90;;;;;;5041267;28;20124;-73
2022/01/01 06:49:39;;;;;;;3.97;2.60;;;12.20;99.90;;;;;;5043644;28;20039;-73
2022/01/01 06:52:05;;;;;;;4.07;2.83;;;12.30;99.90;;;;;;5039643;28;20020;-74
2022/01/01 06:54:32;;;;;;;4.20;2.72;;;12.30;99.90;;;;;;5046371;28;20040;-73
2022/01/01 06:56:58;;;;;;;;;;;12.30;99.90;;;;;;5042378;28;20123;-74
2022/01/01 06:59:24;;;;;;;4.32;2.83;;;12.30;99.90;;;;;;5045992;28;20042;-73
2022/01/01 07:01:50;;;;;;;;;;;12.30;99.90;;;;;;5040985;28;20017;-74
2022/01/01 07:04:16;;;;;;;5.55;2.55;;;12.20;99.90;;;;;;5042405;28;19915;-73
2022/01/01 07:06:42;;;;;;;4.67;2.50;;;12.40;99.90;;;;;;5047429;28;20017;-74
2022/01/01 07:09:09;;;;;;;;;;;12.70;99.90;;;;;;5048804;28;20066;-73
2022/01/01 07:11:36;;;;;;;4.90;2.63;;;13.00;99.90;;;;;;5041777;28;19970;-74
2022/01/01 07:14:01;;;;;;;;;;;13.40;99.90;;;;;;5045890;28;20029;-73
2022/01/01 07:16:28;;;;;;;3.22;2.10;;;13.90;99.90;;;;;;5042588;28;20033;-74
2022/01/01 07:18:54;;;;;;;2.88;2.45;;;14.10;98.80;;;;;;5052377;28;20533;-73
2022/01/01 07:21:20;;;;;;;3.53;2.47;;;14.20;98.50;;;;;;5047256;28;20031;-73
2022/01/01 07:23:47;;;;;;;4.07;2.40;;;14.30;97.80;;;;;;5039272;28;20036;-73
2022/01/01 07:26:13;;;;;;;4.93;2.30;;;14.30;97.70;;;;;;5047936;28;20267;-74
2022/01/01 07:28:40;;;;;;;3.38;2.60;;;14.60;97.30;;;;;;5036898;28;20017;-74
2022/01/01 07:31:05;;;;;;;4.00;2.45;;;15.10;95.90;;;;;;5059566;28;20040;-73
2022/01/01 07:33:31;;;;;;;4.50;2.67;;;15.50;94.60;;;;;;5040969;28;20028;-73
2022/01/01 07:35:58;;;;;;;3.33;2.60;;;15.70;93.90;;;;;;5043076;28;20286;-73
2022/01/01 07:38:24;;;;;;;3.58;2.13;;;15.80;93.20;;;;;;5057399;28;20811;-74
2022/01/01 07:40:50;;;;;;;3.63;2.33;;;15.90;93.10;;;;;;5041252;28;20055;-73
2022/01/01 07:43:17;;;;;;;3.42;2.53;;;16.00;92.80;;;;;;5045760;28;20033;-73
2022/01/01 07:45:44;;;;;;;5.38;2.38;;;16.20;92.10;;;;;;5042907;28;20035;-74
2022/01/01 07:48:12;;;;;;;4.18;2.47;;;16.10;91.60;;;;;;5042492;28;20044;-73
2022/01/01 07:50:38;;;;;;;2.80;2.30;;;16.00;92.10;;;;;;5040471;28;20332;-73
2022/01/01 07:53:09;;;;;;;;;;;15.80;92.20;;;;;;5048484;28;20021;-73
2022/01/01 07:55:35;;;;;;;3.20;2.03;;;15.60;92.60;;;;;;5041741;28;20292;-74
2022/01/01 07:58:00;;;;;;;3.70;2.27;;;15.50;93.00;;;;;;5041557;28;20028;-74
2022/01/01 08:00:27;;;;;;;3.33;2.13;;;15.50;93.10;;;;;;5033004;28;20028;-74
2022/01/01 08:02:53;;;;;;;2.28;2.03;;;15.40;93.00;;;;;;5038384;28;20027;-73
2022/01/01 08:05:18;;;;;;;4.43;2.40;;;15.40;93.30;;;;;;5023643;28;20033;-73
2022/01/01 08:07:46;;;;;;;2.42;1.80;;;15.30;93.20;;;;;;5040855;28;21062;-74
2022/01/01 08:10:20;;;;;;;2.92;2.22;;;15.30;93.00;;;;;;5047308;28;20432;-73
2022/01/01 08:12:46;;;;;;;2.58;1.80;;;15.40;92.90;;;;;;5022880;28;20555;-73
2022/01/01 08:15:16;;;;;;;;;;;15.40;93.00;;;;;;5043740;28;20024;-73
2022/01/01 08:17:42;;;;;;;3.50;2.08;;;15.40;92.90;;;;;;5039213;28;19908;-73
2022/01/01 08:20:09;;;;;;;4.40;2.30;;;15.80;92.40;;;;;;5044790;28;20033;-73
2022/01/01 08:22:35;;;;;;;4.35;2.00;;;16.10;91.60;;;;;;5022137;28;20076;-73
2022/01/01 08:25:02;;;;;;;2.60;2.20;;;16.60;90.60;;;;;;5044970;28;20466;-73
2022/01/01 08:27:28;;;;;;;1.88;1.60;;;17.30;87.70;;;;;;5047656;28;20045;-73
2022/01/01 08:29:54;;;;;;;2.47;1.65;;;18.00;83.10;;;;;;5045587;28;20016;-73
2022/01/01 08:32:19;;;;;;;1.90;1.75;;;18.00;81.70;;;;;;5047019;28;20029;-73
2022/01/01 08:34:46;;;;;;;2.08;1.85;;;17.60;81.60;;;;;;5038611;28;20386;-73
2022/01/01 08:37:13;;;;;;;2.83;1.77;;;17.10;84.60;;;;;;5045101;28;20383;-73
2022/01/01 08:39:39;;;;;;;2.92;2.30;;;16.80;86.60;;;;;;5040355;28;20247;-73
2022/01/01 08:42:09;;;;;;;2.83;1.70;;;16.40;88.30;;;;;;5042739;28;20047;-73
2022/01/01 08:44:36;;;;;;;2.28;2.08;;;16.10;89.80;;;;;;5040440;28;20744;-73
2022/01/01 08:47:02;;;;;;;2.22;1.80;;;16.20;90.80;;;;;;5042903;28;20806;-72
2022/01/01 08:49:29;;;;;;;2.50;1.80;;;17.20;86.20;;;;;;5044138;28;20067;-74
2022/01/01 08:51:56;;;;;;;2.83;1.92;;;17.50;84.00;;;;;;5039738;28;20060;-73
2022/01/01 08:54:23;;;;;;;2.13;1.73;;;18.10;82.60;;;;;;5043443;28;20021;-73
2022/01/01 08:56:49;;;;;;;3.90;1.95;;;18.60;77.50;;;;;;5043022;28;20514;-73
2022/01/01 08:59:16;;;;;;;2.00;1.65;;;19.10;74.80;;;;;;5051171;28;20074;-73
2022/01/01 09:01:41;;;;;;;3.03;1.70;;;19.70;72.20;;;;;;5035246;28;20019;-73
2022/01/01 09:04:07;;;;;;;2.25;1.92;;;19.90;68.40;;;;;;5041145;28;20021;-73
2022/01/01 09:06:35;;;;;;;2.63;1.80;;;19.80;66.90;;;;;;5037098;28;20032;-73
2022/01/01 09:09:01;;;;;;;2.65;2.03;;;20.00;67.80;;;;;;5046158;28;20032;-73
2022/01/01 09:11:26;;;;;;;2.22;1.77;;;20.00;66.60;;;;;;5044965;28;20029;-73
2022/01/01 09:13:52;;;;;;;2.47;1.70;;;20.00;66.40;;;;;;5047118;28;20790;-73
2022/01/01 09:16:20;;;;;;;2.75;2.13;;;20.00;66.00;;;;;;5046520;28;21420;-73
2022/01/01 09:18:48;;;;;;;3.10;2.28;;;19.80;67.10;;;;;;5041917;28;20095;-73
2022/01/01 09:21:15;;;;;;;2.55;2.35;;;19.20;68.90;;;;;;5041149;28;20021;-73
2022/01/01 09:23:41;;;;;;;3.30;2.10;;;19.00;71.40;;;;;;5043088;28;20091;-73
2022/01/01 09:26:11;;;;;;;;;;;19.10;72.20;;;;;;5044668;28;20029;-73
2022/01/01 09:28:38;;;;;;;2.55;2.00;;;19.10;70.90;;;;;;5068785;28;19904;-73
2022/01/01 09:31:05;;;;;;;2.90;2.00;;;18.90;72.20;;;;;;5041120;28;20025;-73
2022/01/01 09:33:37;;;;;;;2.92;2.22;;;18.70;73.00;;;;;;5046831;28;20031;-73
2022/01/01 09:36:05;;;;;;;4.20;2.40;;;18.20;74.20;;;;;;5041271;28;20024;-74
2022/01/01 09:38:33;;;;;;;2.65;2.20;;;17.80;78.10;;;;;;5045960;28;20039;-74
2022/01/01 09:41:01;;;;;;;3.45;2.55;;;17.60;81.10;;;;;;5049535;28;20028;-73
2022/01/01 09:43:29;;;;;;;4.32;2.33;;;17.60;82.00;;;;;;5054325;28;20040;-74
2022/01/01 09:45:57;;;;;;;3.85;2.70;;;17.80;82.40;;;;;;5050221;28;20210;-73
2022/01/01 09:48:25;;;;;;;4.82;2.17;;;17.90;80.70;;;;;;5046877;28;21038;-73
2022/01/01 09:50:56;;;;;;;3.30;2.38;;;17.80;81.10;;;;;;5048116;28;20474;-73
2022/01/01 09:53:24;;;;;;;3.92;2.58;;;17.40;83.10;;;;;;5050774;28;20032;-73
2022/01/01 09:55:50;;;;;;;3.92;2.75;;;16.90;86.20;;;;;;5048093;28;20147;-73
2022/01/01 09:58:24;;;;;;;3.20;2.50;;;16.60;88.50;;;;;;5022759;28;20013;-73
2022/01/01 10:00:52;;;;;;;3.47;2.40;;;16.40;90.30;;;;;;5036545;28;20020;-76
2022/01/01 10:03:36;;;;;;;6.60;2.83;;;16.30;91.50;;;;;;5028284;28;20036;-76
2022/01/01 10:06:15;;;;;;;3.70;2.55;;;16.20;91.60;;;;;;5044164;28;20074;-76
2022/01/01 10:08:48;;;;;;;3.70;2.47;;;16.20;91.40;;;;;;5033792;28;20024;-76
2022/01/01 10:11:18;;;;;;;4.68;2.22;;;16.10;91.70;;;;;;5029590;28;20020;-76
2022/01/01 10:13:45;;;;;;;6.55;2.85;;;16.20;92.00;;;;;;5051133;28;20030;-76
2022/01/01 10:16:12;;;;;;;2.53;2.13;;;16.50;90.90;;;;;;5027697;28;20021;-76
2022/01/01 10:18:43;;;;;;;3.45;2.50;;;17.00;90.30;;;;;;5047475;28;20021;-73
2022/01/01 10:21:12;;;;;;;3.28;2.35;;;17.50;86.20;;;;;;5042444;28;20028;-73
2022/01/01 10:23:42;;;;;;;3.35;2.50;;;17.30;85.90;;;;;;5046581;28;20021;-73
2022/01/01 10:29:08;;;;;;;2.80;2.28;;;17.00;87.10;;;;;;5045433;28;20098;-73
2022/01/01 10:31:36;;;;;;;4.18;2.28;;;16.60;89.50;;;;;;5042000;28;20082;-73
2022/01/01 10:34:10;;;;;;;3.15;2.15;;;16.40;90.00;;;;;;5044979;28;20032;-73
2022/01/01 10:36:37;;;;;;;2.78;2.15;;;16.30;90.40;;;;;;5042088;28;20020;-73
2022/01/01 10:39:07;;;;;;;2.85;2.08;;;16.10;90.80;;;;;;5030242;28;20078;-73
2022/01/01 10:41:52;;;;;;;4.18;2.63;;;15.90;91.60;;;;;;5027248;28;20563;-73
2022/01/01 10:44:26;;;;;;;5.00;2.30;;;15.60;92.20;;;;;;5045422;28;20032;-73
2022/01/01 10:46:52;;;;;;;4.05;2.13;;;15.60;92.70;;;;;;5043909;28;20021;-72
2022/01/01 10:49:50;;;;;;;3.92;2.05;;;15.50;93.00;;;;;;5042413;28;20139;-73
2022/01/01 10:52:32;;;;;;;3.93;2.40;;;15.50;93.00;;;;;;5038476;28;20099;-73
2022/01/01 10:55:02;;;;;;;4.32;2.40;;;15.80;92.70;;;;;;5043174;28;20263;-73
2022/01/01 10:57:35;;;;;;;3.83;2.22;;;16.20;91.60;;;;;;5039398;28;20064;-72
2022/01/01 11:00:14;;;;;;;3.70;2.17;;;16.50;91.00;;;;;;5029688;28;20029;-73
2022/01/01 11:02:59;;;;;;;3.38;2.25;;;17.00;90.40;;;;;;5044144;28;20423;-73
2022/01/01 11:05:32;;;;;;;4.15;2.50;;;17.40;87.70;;;;;;5040434;28;21467;-73
2022/01/01 11:07:58;;;;;;;2.83;2.10;;;17.80;85.60;;;;;;5027669;28;20135;-73
2022/01/01 11:10:26;;;;;;;3.83;2.55;;;18.10;83.70;;;;;;5037154;28;20035;-73
2022/01/01 11:12:53;;;;;;;2.58;2.05;;;18.30;82.20;;;;;;5047226;28;20055;-73
2022/01/01 11:15:20;;;;;;;4.55;2.40;;;18.50;81.30;;;;;;5047478;28;20070;-73
2022/01/01 11:17:47;;;;;;;3.55;1.95;;;18.60;79.80;;;;;;5024147;28;21582;-73
2022/01/01 11:20:15;;;;;;;4.47;2.03;;;18.70;80.00;;;;;;5044890;28;20140;-73
2022/01/01 11:22:42;;;;;;;3.53;2.40;;;18.50;79.10;;;;;;5039019;28;20098;-73
2022/01/01 11:25:10;;;;;;;3.72;2.35;;;18.40;79.80;;;;;;5047669;28;20374;-73
2022/01/01 11:27:38;;;;;;;3.72;2.45;;;18.40;80.30;;;;;;5041181;28;20028;-73
2022/01/01 11:30:10;;;;;;;3.97;2.28;;;18.30;80.10;;;;;;5048009;28;20025;-74
2022/01/01 11:32:44;;;;;;;3.10;2.10;;;18.00;81.00;;;;;;5040337;28;20040;-73
2022/01/01 11:35:20;;;;;;;3.47;2.28;;;17.80;82.90;;;;;;5046058;28;20021;-73
2022/01/01 11:38:02;;;;;;;2.90;2.30;;;17.70;84.20;;;;;;5041607;28;20048;-70
2022/01/01 11:41:00;;;;;;;3.63;2.45;;;17.40;84.60;;;;;;5042886;28;20032;-71
2022/01/01 11:43:53;;;;;;;3.15;2.40;;;16.90;87.90;;;;;;5030098;28;20774;-71
2022/01/01 11:46:33;;;;;;;3.22;2.22;;;16.80;89.60;;;;;;5048244;28;20640;-70
2022/01/01 11:49:00;;;;;;;3.08;2.15;;;16.60;90.20;;;;;;5042695;28;20028;-73
2022/01/01 11:51:36;;;;;;;6.03;2.53;;;16.50;90.80;;;;;;5040141;28;20044;-75
2022/01/01 11:54:23;;;;;;;2.85;2.08;;;16.40;92.90;;;;;;5041394;28;20013;-73
2022/01/01 11:57:00;;;;;;;3.70;2.50;;;16.50;91.60;;;;;;5053450;28;20032;-72
2022/01/01 11:59:32;;;;;;;2.45;2.13;;;16.50;91.30;;;;;;5058215;28;20028;-67
2022/01/01 12:02:11;;;;;;;4.07;2.28;;;16.50;91.40;;;;;;5043726;28;20524;-67
2022/01/01 12:04:50;;;;;;;3.00;1.77;;;16.40;91.10;;;;;;5039035;28;20462;-67
2022/01/01 12:07:16;;;;;;;3.65;2.15;;;16.30;90.80;;;;;;5039548;28;20131;-67
2022/01/01 12:12:55;;;;;;;14.32;2.40;;;16.20;91.70;;;;;;5034173;28;20020;-71
2022/01/01 12:15:23;;;;;;;2.63;1.90;;;16.20;92.00;;;;;;5042371;28;20028;-74
2022/01/01 12:17:57;;;;;;;3.33;2.10;;;16.10;91.40;;;;;;5051721;28;20075;-70
2022/01/01 12:20:32;;;;;;;3.03;1.77;;;16.00;91.30;;;;;;5040006;28;20024;-72
2022/01/01 12:23:01;;;;;;;2.33;1.92;;;15.70;92.00;;;;;;5044082;28;20084;-72
2022/01/01 12:25:29;;;;;;;3.17;1.95;;;15.50;92.70;;;;;;5042670;28;20538;-73
2022/01/01 12:28:05;;;;;;;2.40;1.90;;;15.30;93.10;;;;;;5044831;28;20085;-70
2022/01/01 12:30:33;;;;;;;3.90;1.67;;;15.20;93.30;;;;;;5041727;28;20078;-70
2022/01/01 12:32:59;;;;;;;2.80;1.80;;;15.10;93.70;;;;;;5038543;28;20067;-70
2022/01/01 12:35:57;;;;;;;4.13;1.85;;;15.00;93.90;;;;;;5045921;28;20070;-73
2022/01/01 12:38:30;;;;;;;4.95;1.92;;;15.00;94.20;;;;;;5044050;28;20018;-71
2022/01/01 12:41:08;;;;;;;3.80;1.75;;;15.00;94.50;;;;;;5055734;28;20771;-74
2022/01/01 12:43:59;;;;;;;3.53;1.77;;;15.20;94.40;;;;;;5051564;28;20538;-74
2022/01/01 12:46:30;;;;;;;3.03;1.90;;;15.40;93.50;;;;;;5040862;28;20048;-73
2022/01/01 12:49:05;;;;;;;4.07;1.90;;;15.40;92.90;;;;;;5040994;28;20032;-72
2022/01/01 12:51:37;;;;;;;2.30;1.77;;;15.40;93.00;;;;;;5052354;28;20021;-71
2022/01/01 12:54:25;;;;;;;1.77;1.42;;;15.30;92.60;;;;;;5039207;28;20021;-72
2022/01/01 12:56:54;;;;;;;2.30;1.70;;;15.20;93.20;;;;;;5045499;28;20701;-72
2022/01/01 12:59:21;;;;;;;2.78;1.60;;;15.00;93.50;;;;;;5047011;28;20022;-72
2022/01/01 13:01:53;;;;;;;3.72;2.17;;;14.90;93.90;;;;;;5053490;28;20027;-72
2022/01/01 13:04:26;;;;;;;3.15;1.77;;;14.80;94.20;;;;;;5053922;28;20021;-72
2022/01/01 13:06:54;;;;;;;2.45;1.58;;;14.70;94.50;;;;;;5045339;28;20040;-72
2022/01/01 13:09:24;;;;;;;2.83;1.90;;;14.70;94.70;;;;;;5055713;28;20017;-72
2022/01/01 13:11:57;;;;;;;3.72;1.90;;;14.70;94.90;;;;;;5055364;28;20025;-72